createdAt,value
2022-12-29T00:00:15.874Z,46.57
2022-12-29T00:01:15.771Z,46.57
2022-12-29T00:02:15.945Z,46.89
2022-12-29T00:03:15.858Z,45.60
2022-12-29T00:04:15.922Z,50.11
2022-12-29T00:05:15.740Z,46.57
2022-12-29T00:06:15.742Z,45.76
2022-12-29T00:07:15.714Z,45.92
2022-12-29T00:08:15.694Z,45.92
2022-12-29T00:09:15.696Z,45.44
2022-12-29T00:10:15.707Z,45.44
2022-12-29T00:11:15.691Z,46.08
2022-12-29T00:12:15.712Z,47.53
2022-12-29T00:13:15.694Z,46.89
2022-12-29T00:14:47.616Z,46.08
2022-12-29T00:15:15.674Z,46.73
2022-12-29T00:16:15.701Z,46.08
2022-12-29T00:17:15.676Z,45.76
2022-12-29T00:18:15.637Z,46.25
2022-12-29T00:19:15.629Z,45.76
2022-12-29T00:20:15.609Z,46.41
2022-12-29T00:21:15.608Z,45.76
2022-12-29T00:22:15.590Z,45.92
2022-12-29T00:23:15.635Z,45.12
2022-12-29T00:24:15.620Z,45.60
2022-12-29T00:25:15.639Z,45.28
2022-12-29T00:26:15.582Z,48.02
2022-12-29T00:27:15.593Z,47.53
2022-12-29T00:28:15.566Z,46.73
2022-12-29T00:29:15.555Z,46.57
2022-12-29T00:30:15.557Z,47.86
2022-12-29T00:31:15.561Z,45.92
2022-12-29T00:32:15.519Z,45.44
2022-12-29T00:33:15.537Z,45.60
2022-12-29T00:34:15.542Z,46.08
2022-12-29T00:35:15.587Z,46.25
2022-12-29T00:36:15.524Z,46.08
2022-12-29T00:37:15.497Z,45.44
2022-12-29T00:38:15.482Z,45.76
2022-12-29T00:39:15.533Z,46.25
2022-12-29T00:40:15.484Z,45.76
2022-12-29T00:41:15.470Z,48.98
2022-12-29T00:42:15.449Z,46.89
2022-12-29T00:43:15.445Z,45.76
2022-12-29T00:44:15.543Z,45.92
2022-12-29T00:45:15.497Z,45.92
2022-12-29T00:46:19.696Z,47.70
2022-12-29T00:47:16.463Z,46.08
2022-12-29T00:48:15.450Z,45.76
2022-12-29T00:49:15.437Z,46.08
2022-12-29T00:50:15.479Z,46.89
2022-12-29T00:51:15.388Z,46.57
2022-12-29T00:52:15.527Z,47.37
2022-12-29T00:53:15.363Z,48.34
2022-12-29T00:54:15.372Z,46.08
2022-12-29T00:55:15.349Z,47.05
2022-12-29T00:56:15.362Z,46.41
2022-12-29T00:57:15.393Z,46.41
2022-12-29T00:58:15.341Z,48.82
2022-12-29T00:59:15.323Z,46.25
2022-12-29T01:00:15.321Z,47.37
2022-12-29T01:01:15.387Z,47.21
2022-12-29T01:02:15.497Z,47.70
2022-12-29T01:03:15.380Z,48.50
2022-12-29T01:04:15.277Z,46.41
2022-12-29T01:05:15.308Z,45.76
2022-12-29T01:06:15.260Z,46.25
2022-12-29T01:07:15.287Z,46.57
2022-12-29T01:08:15.290Z,45.60
2022-12-29T01:09:15.267Z,47.21
2022-12-29T01:10:15.412Z,46.25
2022-12-29T01:11:15.940Z,48.02
2022-12-29T01:12:15.217Z,46.25
2022-12-29T01:13:15.201Z,49.15
2022-12-29T01:14:15.358Z,49.63
2022-12-29T01:15:15.250Z,45.60
2022-12-29T01:16:15.257Z,45.76
2022-12-29T01:17:15.265Z,45.60
2022-12-29T01:18:15.171Z,45.92
2022-12-29T01:19:15.189Z,45.44
2022-12-29T01:20:15.172Z,46.25
2022-12-29T01:21:15.121Z,45.76
2022-12-29T01:22:16.162Z,46.25
2022-12-29T01:23:15.170Z,46.25
2022-12-29T01:24:15.133Z,47.05
2022-12-29T01:25:15.139Z,46.25
2022-12-29T01:26:15.165Z,46.08
2022-12-29T01:27:15.192Z,46.25
2022-12-29T01:28:15.096Z,46.57
2022-12-29T01:29:16.266Z,46.73
2022-12-29T01:30:15.100Z,46.73
2022-12-29T01:31:15.089Z,46.57
2022-12-29T01:32:15.077Z,46.89
2022-12-29T01:33:15.091Z,48.18
2022-12-29T01:34:15.081Z,47.70
2022-12-29T01:35:15.083Z,47.21
2022-12-29T01:36:15.062Z,46.57
2022-12-29T01:37:15.113Z,46.89
2022-12-29T01:38:15.015Z,47.05
2022-12-29T01:39:15.009Z,47.37
2022-12-29T01:40:15.024Z,46.73
2022-12-29T01:41:15.009Z,45.92
2022-12-29T01:42:14.999Z,45.76
2022-12-29T01:43:15.003Z,45.76
2022-12-29T01:44:14.994Z,47.05
2022-12-29T01:45:14.988Z,46.73
2022-12-29T01:46:14.990Z,45.76
2022-12-29T01:47:14.939Z,47.05
2022-12-29T01:48:14.947Z,46.25
2022-12-29T01:49:14.949Z,45.92
2022-12-29T01:50:14.952Z,45.92
2022-12-29T01:51:14.919Z,45.92
2022-12-29T01:52:14.924Z,45.76
2022-12-29T01:53:14.929Z,46.41
2022-12-29T01:54:15.013Z,49.15
2022-12-29T01:55:14.882Z,49.63
2022-12-29T01:56:14.884Z,47.53
2022-12-29T01:57:14.880Z,48.34
2022-12-29T01:58:14.853Z,48.02
2022-12-29T01:59:14.859Z,47.37
2022-12-29T02:00:14.875Z,49.79
2022-12-29T02:01:14.882Z,46.89
2022-12-29T02:02:14.926Z,45.92
2022-12-29T02:03:15.619Z,46.08
2022-12-29T02:04:14.900Z,45.76
2022-12-29T02:05:15.639Z,45.76
2022-12-29T02:06:14.837Z,45.92
2022-12-29T02:07:14.831Z,47.70
2022-12-29T02:08:14.785Z,48.34
2022-12-29T02:09:46.718Z,46.41
2022-12-29T02:10:14.797Z,46.73
2022-12-29T02:11:14.762Z,45.76
2022-12-29T02:12:14.781Z,45.76
2022-12-29T02:13:14.806Z,46.25
2022-12-29T02:14:14.785Z,46.57
2022-12-29T02:15:14.738Z,47.37
2022-12-29T02:16:14.827Z,46.41
2022-12-29T02:17:14.750Z,45.92
2022-12-29T02:18:14.735Z,46.25
2022-12-29T02:19:14.709Z,45.76
2022-12-29T02:20:14.702Z,45.92
2022-12-29T02:21:14.706Z,46.25
2022-12-29T02:22:14.685Z,46.73
2022-12-29T02:23:14.694Z,46.41
2022-12-29T02:24:14.666Z,46.41
2022-12-29T02:25:14.677Z,46.08
2022-12-29T02:26:14.648Z,45.92
2022-12-29T02:27:14.678Z,45.92
2022-12-29T02:28:14.647Z,45.92
2022-12-29T02:29:14.629Z,46.41
2022-12-29T02:30:14.631Z,46.41
2022-12-29T02:31:14.663Z,46.41
2022-12-29T02:32:14.655Z,49.47
2022-12-29T02:33:14.607Z,46.73
2022-12-29T02:34:14.595Z,46.25
2022-12-29T02:35:14.582Z,47.70
2022-12-29T02:36:14.575Z,46.25
2022-12-29T02:37:14.584Z,45.76
2022-12-29T02:38:14.589Z,45.92
2022-12-29T02:39:14.554Z,46.89
2022-12-29T02:40:14.564Z,46.08
2022-12-29T02:41:14.577Z,45.60
2022-12-29T02:42:14.552Z,46.57
2022-12-29T02:43:15.408Z,48.02
2022-12-29T02:44:14.538Z,46.41
2022-12-29T02:45:14.511Z,46.25
2022-12-29T02:46:14.535Z,47.05
2022-12-29T02:47:14.576Z,46.25
2022-12-29T02:48:14.556Z,45.60
2022-12-29T02:49:14.493Z,45.44
2022-12-29T02:50:14.469Z,45.44
2022-12-29T02:51:14.466Z,46.25
2022-12-29T02:52:14.464Z,45.92
2022-12-29T02:53:14.443Z,46.08
2022-12-29T02:54:14.427Z,45.76
2022-12-29T02:55:14.452Z,46.73
2022-12-29T02:56:14.481Z,46.08
2022-12-29T02:57:14.437Z,45.76
2022-12-29T02:58:14.405Z,46.08
2022-12-29T02:59:14.403Z,45.92
2022-12-29T03:00:14.424Z,46.25
2022-12-29T03:01:14.479Z,46.41
2022-12-29T03:02:14.443Z,45.60
2022-12-29T03:03:14.476Z,45.60
2022-12-29T03:04:14.371Z,45.60
2022-12-29T03:05:14.389Z,45.60
2022-12-29T03:06:14.366Z,46.08
2022-12-29T03:07:14.332Z,47.21
2022-12-29T03:08:14.320Z,50.27
2022-12-29T03:09:18.829Z,46.25
2022-12-29T03:10:15.336Z,46.08
2022-12-29T03:11:14.317Z,46.41
2022-12-29T03:12:14.305Z,45.60
2022-12-29T03:13:14.279Z,45.76
2022-12-29T03:14:14.303Z,46.08
2022-12-29T03:15:14.307Z,45.76
2022-12-29T03:16:14.343Z,46.73
2022-12-29T03:17:14.445Z,47.53
2022-12-29T03:18:14.242Z,45.60
2022-12-29T03:19:14.347Z,46.57
2022-12-29T03:20:14.251Z,47.21
2022-12-29T03:21:14.244Z,46.73
2022-12-29T03:22:14.250Z,45.92
2022-12-29T03:23:14.234Z,45.92
2022-12-29T03:24:14.261Z,46.25
2022-12-29T03:25:14.206Z,47.21
2022-12-29T03:26:14.214Z,46.08
2022-12-29T03:27:14.217Z,46.25
2022-12-29T03:28:14.190Z,45.92
2022-12-29T03:29:14.182Z,45.76
2022-12-29T03:30:14.194Z,46.25
2022-12-29T03:31:14.221Z,45.76
2022-12-29T03:32:14.194Z,46.73
2022-12-29T03:33:14.223Z,49.15
2022-12-29T03:34:14.229Z,46.08
2022-12-29T03:35:14.146Z,46.25
2022-12-29T03:36:14.119Z,45.76
2022-12-29T03:37:14.132Z,45.44
2022-12-29T03:38:14.107Z,45.76
2022-12-29T03:39:14.094Z,46.41
2022-12-29T03:40:14.167Z,45.76
2022-12-29T03:41:14.086Z,48.66
2022-12-29T03:42:14.068Z,47.05
2022-12-29T03:43:14.205Z,45.92
2022-12-29T03:44:14.064Z,47.21
2022-12-29T03:45:14.063Z,47.37
2022-12-29T03:46:14.112Z,46.25
2022-12-29T03:47:14.031Z,46.57
2022-12-29T04:03:44.096Z,48.02
2022-12-29T04:04:44.062Z,47.05
2022-12-29T04:05:44.066Z,46.41
2022-12-29T04:06:44.016Z,48.66
2022-12-29T04:07:45.141Z,46.73
2022-12-29T04:08:45.172Z,46.08
2022-12-29T04:09:46.172Z,46.89
2022-12-29T04:10:45.181Z,48.66
2022-12-29T04:11:45.145Z,50.43
2022-12-29T04:12:45.116Z,47.53
2022-12-29T04:13:45.119Z,49.47
2022-12-29T04:14:45.146Z,46.73
2022-12-29T04:15:45.150Z,46.73
2022-12-29T04:16:45.098Z,47.53
2022-12-29T04:17:45.104Z,51.56
2022-12-29T04:18:45.055Z,51.08
2022-12-29T04:19:45.062Z,49.63
2022-12-29T04:20:45.068Z,47.21
2022-12-29T04:21:45.048Z,47.70
2022-12-29T04:22:45.055Z,46.57
2022-12-29T04:23:45.028Z,47.86
2022-12-29T04:24:45.021Z,46.41
2022-12-29T04:25:45.029Z,46.57
2022-12-29T04:26:45.027Z,47.05
2022-12-29T04:27:45.010Z,50.43
2022-12-29T04:28:44.989Z,47.53
2022-12-29T04:29:45.002Z,51.08
2022-12-29T04:30:44.980Z,50.11
2022-12-29T04:31:45.121Z,52.05
2022-12-29T04:32:44.966Z,50.43
2022-12-29T04:33:44.976Z,47.86
2022-12-29T04:34:44.952Z,50.76
2022-12-29T04:35:44.926Z,54.79
2022-12-29T04:36:44.953Z,46.89
2022-12-29T04:37:44.921Z,49.79
2022-12-29T04:38:44.931Z,47.21
2022-12-29T04:39:44.910Z,51.24
2022-12-29T04:40:44.909Z,53.01
2022-12-29T04:41:44.889Z,47.70
2022-12-29T04:42:44.904Z,47.70
2022-12-29T04:43:44.896Z,48.50
2022-12-29T04:44:45.333Z,52.05
2022-12-29T04:45:45.887Z,49.47
2022-12-29T04:46:44.889Z,51.08
2022-12-29T04:47:44.892Z,47.53
2022-12-29T04:48:44.852Z,47.21
2022-12-29T04:49:44.841Z,47.21
2022-12-29T04:50:44.827Z,46.89
2022-12-29T04:51:44.842Z,48.98
2022-12-29T04:52:44.823Z,46.57
2022-12-29T04:53:44.847Z,47.37
2022-12-29T04:54:44.822Z,47.05
2022-12-29T04:55:44.774Z,48.02
2022-12-29T04:56:44.819Z,49.95
2022-12-29T04:57:44.773Z,47.70
2022-12-29T04:58:44.759Z,46.89
2022-12-29T04:59:44.784Z,46.25
2022-12-29T05:00:44.733Z,49.15
2022-12-29T05:01:44.870Z,49.15
2022-12-29T05:02:44.867Z,50.43
2022-12-29T05:03:44.794Z,46.73
2022-12-29T05:04:44.720Z,47.21
2022-12-29T05:05:44.724Z,48.34
2022-12-29T05:06:44.713Z,48.02
2022-12-29T05:07:44.745Z,52.37
2022-12-29T05:08:44.703Z,47.86
2022-12-29T05:09:44.672Z,48.66
2022-12-29T05:10:44.696Z,49.31
2022-12-29T05:11:44.661Z,46.57
2022-12-29T05:12:44.640Z,46.25
2022-12-29T05:13:44.646Z,50.27
2022-12-29T05:14:44.628Z,47.21
2022-12-29T05:15:44.689Z,45.76
2022-12-29T05:16:44.622Z,48.66
2022-12-29T05:17:44.642Z,47.37
2022-12-29T05:18:44.597Z,46.73
2022-12-29T05:19:44.600Z,47.37
2022-12-29T05:20:44.621Z,47.37
2022-12-29T05:21:44.578Z,45.92
2022-12-29T05:22:44.648Z,46.57
2022-12-29T05:23:44.575Z,48.66
2022-12-29T05:24:44.553Z,53.50
2022-12-29T05:25:44.537Z,48.82
2022-12-29T05:26:44.546Z,47.37
2022-12-29T05:27:44.556Z,50.11
2022-12-29T05:28:44.560Z,47.53
2022-12-29T05:29:44.543Z,46.73
2022-12-29T05:30:44.549Z,47.53
2022-12-29T05:31:44.580Z,48.34
2022-12-29T05:32:44.517Z,47.37
2022-12-29T05:33:44.475Z,48.18
2022-12-29T05:34:44.474Z,48.82
2022-12-29T05:35:44.512Z,50.60
2022-12-29T05:36:44.494Z,48.98
2022-12-29T05:37:44.478Z,54.14
2022-12-29T05:38:44.434Z,50.11
2022-12-29T05:39:44.432Z,49.31
2022-12-29T05:40:44.452Z,51.24
2022-12-29T05:41:44.429Z,52.69
2022-12-29T05:42:44.460Z,54.95
2022-12-29T05:43:44.461Z,51.24
2022-12-29T05:44:44.469Z,55.75
2022-12-29T05:45:44.442Z,51.72
2022-12-29T05:46:44.437Z,47.37
2022-12-29T05:47:44.375Z,47.37
2022-12-29T05:48:44.411Z,49.47
2022-12-29T05:49:44.384Z,51.88
2022-12-29T05:50:44.351Z,47.70
2022-12-29T05:51:44.336Z,49.31
2022-12-29T05:52:44.343Z,49.15
2022-12-29T05:53:44.357Z,46.57
2022-12-29T05:54:44.319Z,47.21
2022-12-29T05:55:48.496Z,48.50
2022-12-29T05:56:45.304Z,52.37
2022-12-29T05:57:44.300Z,52.53
2022-12-29T05:58:44.300Z,51.88
2022-12-29T05:59:44.301Z,50.60
2022-12-29T06:00:44.276Z,47.70
2022-12-29T06:01:44.338Z,46.41
2022-12-29T06:02:44.497Z,47.70
2022-12-29T06:03:48.159Z,46.25
2022-12-29T06:04:45.249Z,47.05
2022-12-29T06:05:44.232Z,47.53
2022-12-29T06:06:44.216Z,47.37
2022-12-29T06:07:44.223Z,48.66
2022-12-29T06:08:44.217Z,51.08
2022-12-29T06:09:44.187Z,47.70
2022-12-29T06:10:44.217Z,48.34
2022-12-29T06:11:44.181Z,48.98
2022-12-29T06:12:44.188Z,47.05
2022-12-29T06:13:44.154Z,52.53
2022-12-29T06:14:44.173Z,51.88
2022-12-29T06:15:44.160Z,53.17
2022-12-29T06:16:44.216Z,53.50
2022-12-29T06:17:44.128Z,46.57
2022-12-29T06:18:44.121Z,46.73
2022-12-29T06:19:44.113Z,51.08
2022-12-29T06:20:44.122Z,47.21
2022-12-29T06:21:44.091Z,48.66
2022-12-29T06:22:44.095Z,47.86
2022-12-29T06:23:44.082Z,49.15
2022-12-29T06:24:44.070Z,46.73
2022-12-29T06:25:44.103Z,46.57
2022-12-29T06:26:44.093Z,48.82
2022-12-29T06:27:44.054Z,49.15
2022-12-29T06:28:44.075Z,49.15
2022-12-29T06:29:44.044Z,52.53
2022-12-29T06:30:44.038Z,49.15
2022-12-29T06:31:44.134Z,54.14
2022-12-29T06:32:44.006Z,51.88
2022-12-29T06:33:48.250Z,57.20
2022-12-29T06:34:44.996Z,49.47
2022-12-29T06:35:43.991Z,52.85
2022-12-29T06:36:44.039Z,52.85
2022-12-29T06:37:44.038Z,47.86
2022-12-29T06:38:43.977Z,48.82
2022-12-29T06:39:43.957Z,55.27
2022-12-29T06:40:43.951Z,47.86
2022-12-29T06:41:43.951Z,49.31
2022-12-29T06:42:43.925Z,49.79
2022-12-29T06:43:43.923Z,54.62
2022-12-29T06:44:43.916Z,50.60
2022-12-29T06:45:43.928Z,47.21
2022-12-29T06:46:43.907Z,60.75
2022-12-29T06:47:43.896Z,62.04
2022-12-29T06:48:43.874Z,50.11
2022-12-29T06:49:43.903Z,47.37
2022-12-29T06:50:43.839Z,54.62
2022-12-29T06:51:43.888Z,54.14
2022-12-29T06:52:43.861Z,50.92
2022-12-29T06:53:43.846Z,49.15
2022-12-29T06:54:43.837Z,51.40
2022-12-29T06:55:43.850Z,52.37
2022-12-29T06:56:43.852Z,53.17
2022-12-29T06:57:43.827Z,48.66
2022-12-29T06:58:43.794Z,54.62
2022-12-29T06:59:43.793Z,50.27
2022-12-29T07:00:43.786Z,48.98
2022-12-29T07:01:43.908Z,52.53
2022-12-29T07:02:43.893Z,48.82
2022-12-29T07:03:43.765Z,55.27
2022-12-29T07:04:43.809Z,48.98
2022-12-29T07:05:43.758Z,51.24
2022-12-29T07:06:43.743Z,49.95
2022-12-29T07:07:44.306Z,50.92
2022-12-29T07:08:43.758Z,48.82
2022-12-29T07:09:43.719Z,48.34
2022-12-29T07:10:43.720Z,52.53
2022-12-29T07:11:43.704Z,53.33
2022-12-29T07:12:43.703Z,50.43
2022-12-29T07:13:43.704Z,48.98
2022-12-29T07:14:43.859Z,55.59
2022-12-29T07:15:43.726Z,47.37
2022-12-29T07:16:43.713Z,48.50
2022-12-29T07:17:43.655Z,51.24
2022-12-29T07:18:43.685Z,48.98
2022-12-29T07:19:43.706Z,49.47
2022-12-29T07:20:43.640Z,49.31
2022-12-29T07:21:46.325Z,58.17
2022-12-29T07:22:43.616Z,50.76
2022-12-29T07:23:43.627Z,48.34
2022-12-29T07:24:43.622Z,52.85
2022-12-29T07:25:43.599Z,47.05
2022-12-29T07:26:43.605Z,50.60
2022-12-29T07:27:43.576Z,50.11
2022-12-29T07:28:43.585Z,55.11
2022-12-29T07:29:43.585Z,49.47
2022-12-29T07:30:43.576Z,63.81
2022-12-29T07:31:43.562Z,58.81
2022-12-29T07:32:44.530Z,53.17
2022-12-29T07:33:43.558Z,53.33
2022-12-29T07:34:43.591Z,59.30
2022-12-29T07:35:43.530Z,57.20
2022-12-29T07:36:43.530Z,55.43
2022-12-29T07:37:43.509Z,47.05
2022-12-29T07:38:43.556Z,54.62
2022-12-29T07:39:43.512Z,51.88
2022-12-29T07:40:43.493Z,58.33
2022-12-29T07:41:43.476Z,50.27
2022-12-29T07:42:43.483Z,53.33
2022-12-29T07:43:43.459Z,46.89
2022-12-29T07:44:43.452Z,51.08
2022-12-29T07:45:43.514Z,51.08
2022-12-29T07:46:54.968Z,53.01
2022-12-29T07:47:44.433Z,56.56
2022-12-29T07:48:43.421Z,58.49
2022-12-29T07:49:43.409Z,53.98
2022-12-29T07:50:43.456Z,53.66
2022-12-29T07:51:43.447Z,49.31
2022-12-29T07:52:43.394Z,49.95
2022-12-29T07:53:43.395Z,52.05
2022-12-29T07:54:43.379Z,51.72
2022-12-29T07:55:43.357Z,54.95
2022-12-29T07:56:43.419Z,56.07
2022-12-29T07:57:43.385Z,51.40
2022-12-29T07:58:43.346Z,50.27
2022-12-29T07:59:43.325Z,49.79
2022-12-29T08:00:43.322Z,58.17
2022-12-29T08:01:43.447Z,49.63
2022-12-29T08:02:43.424Z,53.01
2022-12-29T08:03:43.345Z,50.43
2022-12-29T08:04:43.291Z,56.24
2022-12-29T08:05:44.340Z,54.79
2022-12-29T08:06:43.279Z,54.95
2022-12-29T08:07:43.281Z,54.30
2022-12-29T08:08:43.293Z,51.24
2022-12-29T08:12:01.865Z,51.56
2022-12-29T08:13:01.849Z,54.79
2022-12-29T08:14:02.978Z,51.72
2022-12-29T08:15:02.944Z,51.40
2022-12-29T08:16:04.622Z,50.27
2022-12-29T08:17:02.988Z,57.04
2022-12-29T08:18:02.930Z,59.46
2022-12-29T08:19:02.939Z,53.82
2022-12-29T08:20:02.950Z,52.37
2022-12-29T08:21:02.909Z,52.21
2022-12-29T08:22:02.921Z,51.88
2022-12-29T08:23:02.940Z,57.20
2022-12-29T08:24:02.896Z,52.05
2022-12-29T08:25:02.881Z,59.30
2022-12-29T08:26:02.868Z,53.66
2022-12-29T08:27:11.838Z,53.50
2022-12-29T08:28:04.859Z,57.52
2022-12-29T08:29:02.844Z,50.76
2022-12-29T08:30:03.023Z,52.69
2022-12-29T08:31:02.852Z,54.62
2022-12-29T08:32:02.937Z,51.08
2022-12-29T08:33:02.819Z,56.56
2022-12-29T08:34:02.829Z,61.39
2022-12-29T08:35:02.847Z,52.53
2022-12-29T08:36:02.771Z,53.33
2022-12-29T08:37:02.817Z,51.88
2022-12-29T08:38:02.780Z,60.26
2022-12-29T08:39:02.781Z,51.24
2022-12-29T08:40:02.770Z,59.14
2022-12-29T08:41:02.738Z,55.43
2022-12-29T08:42:02.758Z,49.47
2022-12-29T08:43:02.721Z,52.85
2022-12-29T08:44:02.749Z,58.17
2022-12-29T08:45:02.801Z,55.27
2022-12-29T08:46:02.793Z,56.07
2022-12-29T08:47:02.747Z,49.15
2022-12-29T08:48:02.698Z,51.08
2022-12-29T08:49:03.470Z,55.27
2022-12-29T08:50:02.696Z,51.72
2022-12-29T08:51:02.708Z,49.95
2022-12-29T08:52:02.653Z,53.82
2022-12-29T08:53:02.661Z,52.69
2022-12-29T08:54:02.652Z,50.27
2022-12-29T08:55:02.620Z,55.43
2022-12-29T08:56:05.422Z,56.72
2022-12-29T08:57:03.669Z,52.53
2022-12-29T08:58:02.641Z,56.56
2022-12-29T08:59:02.608Z,59.94
2022-12-29T09:00:02.589Z,49.95
2022-12-29T09:01:02.635Z,52.85
2022-12-29T09:02:02.909Z,52.69
2022-12-29T09:03:02.780Z,53.98
2022-12-29T09:04:18.603Z,62.84
2022-12-29T09:05:04.577Z,52.21
2022-12-29T09:06:02.582Z,54.14
2022-12-29T09:07:02.531Z,56.40
2022-12-29T09:08:02.575Z,49.95
2022-12-29T09:09:02.522Z,52.85
2022-12-29T09:10:02.519Z,49.79
2022-12-29T09:11:02.522Z,53.17
2022-12-29T09:12:02.508Z,55.11
2022-12-29T09:13:02.497Z,48.82
2022-12-29T09:14:02.516Z,61.23
2022-12-29T09:15:02.471Z,49.47
2022-12-29T09:16:02.491Z,50.27
2022-12-29T09:17:02.466Z,50.43
2022-12-29T09:18:02.471Z,61.39
2022-12-29T09:19:02.449Z,55.43
2022-12-29T09:20:02.448Z,56.72
2022-12-29T09:21:02.451Z,56.07
2022-12-29T09:22:02.481Z,55.27
2022-12-29T09:23:02.437Z,55.91
2022-12-29T09:24:02.407Z,52.85
2022-12-29T09:25:02.384Z,50.76
2022-12-29T09:26:02.415Z,57.36
2022-12-29T09:27:02.419Z,61.07
2022-12-29T09:28:02.364Z,58.65
2022-12-29T09:29:02.355Z,55.27
2022-12-29T09:30:02.353Z,58.17
2022-12-29T09:31:02.464Z,57.85
2022-12-29T09:32:02.336Z,58.17
2022-12-29T09:33:02.347Z,55.91
2022-12-29T09:34:02.339Z,62.20
2022-12-29T09:35:02.325Z,58.65
2022-12-29T09:36:02.312Z,61.23
2022-12-29T09:37:02.302Z,64.94
2022-12-29T09:38:02.298Z,58.97
2022-12-29T09:39:02.312Z,54.95
2022-12-29T09:40:02.264Z,60.42
2022-12-29T09:41:02.308Z,57.20
2022-12-29T09:42:02.250Z,57.20
2022-12-29T09:43:02.250Z,53.33
2022-12-29T09:44:02.271Z,59.30
2022-12-29T09:45:02.231Z,54.95
2022-12-29T09:46:02.239Z,63.97
2022-12-29T09:47:02.293Z,63.16
2022-12-29T09:48:08.149Z,55.43
2022-12-29T09:49:04.234Z,62.36
2022-12-29T09:50:02.217Z,58.97
2022-12-29T09:51:02.222Z,56.40
2022-12-29T09:52:02.179Z,59.46
2022-12-29T09:53:02.233Z,55.75
2022-12-29T09:54:02.181Z,57.69
2022-12-29T09:55:06.328Z,54.14
2022-12-29T09:56:04.200Z,55.11
2022-12-29T09:57:02.164Z,51.56
2022-12-29T09:58:02.144Z,50.43
2022-12-29T09:59:02.148Z,56.40
2022-12-29T10:00:02.251Z,58.49
2022-12-29T10:01:02.171Z,57.52
2022-12-29T10:02:02.255Z,54.30
2022-12-29T10:03:02.275Z,51.40
2022-12-29T10:04:02.094Z,62.36
2022-12-29T10:05:02.154Z,59.78
2022-12-29T10:06:02.115Z,56.56
2022-12-29T10:07:29.053Z,54.62
2022-12-29T10:08:04.106Z,59.46
2022-12-29T10:09:02.065Z,57.85
2022-12-29T10:10:02.129Z,57.20
2022-12-29T10:11:02.080Z,59.78
2022-12-29T10:12:02.046Z,62.20
2022-12-29T10:13:02.025Z,54.62
2022-12-29T10:14:02.015Z,47.53
2022-12-29T10:15:02.031Z,62.36
2022-12-29T10:16:02.070Z,57.04
2022-12-29T10:17:02.028Z,60.10
2022-12-29T10:18:01.996Z,58.97
2022-12-29T10:19:02.028Z,62.36
2022-12-29T10:20:02.015Z,50.76
2022-12-29T10:21:01.952Z,56.40
2022-12-29T10:22:01.983Z,52.53
2022-12-29T10:23:01.957Z,59.46
2022-12-29T10:24:01.946Z,49.95
2022-12-29T10:25:01.931Z,56.24
2022-12-29T10:26:01.955Z,56.88
2022-12-29T10:27:02.947Z,55.59
2022-12-29T10:28:01.908Z,58.81
2022-12-29T10:29:01.897Z,60.59
2022-12-29T10:30:01.925Z,60.26
2022-12-29T10:31:08.330Z,51.56
2022-12-29T10:32:03.964Z,54.95
2022-12-29T10:33:01.895Z,55.75
2022-12-29T10:34:01.859Z,57.20
2022-12-29T10:35:01.868Z,61.39
2022-12-29T10:36:01.833Z,58.81
2022-12-29T10:37:01.877Z,55.59
2022-12-29T10:38:01.872Z,56.07
2022-12-29T10:39:01.818Z,59.30
2022-12-29T10:40:01.813Z,52.69
2022-12-29T10:41:01.836Z,59.62
2022-12-29T10:42:01.821Z,53.66
2022-12-29T10:43:01.828Z,54.95
2022-12-29T10:44:01.806Z,53.50
2022-12-29T10:45:01.798Z,58.65
2022-12-29T10:46:01.809Z,57.20
2022-12-29T10:47:01.769Z,62.84
2022-12-29T10:48:01.793Z,58.65
2022-12-29T10:49:01.797Z,61.87
2022-12-29T10:50:01.773Z,61.71
2022-12-29T10:51:02.401Z,53.17
2022-12-29T10:52:02.782Z,56.72
2022-12-29T10:53:01.758Z,50.11
2022-12-29T10:54:01.743Z,58.65
2022-12-29T10:55:01.719Z,56.72
2022-12-29T10:56:01.742Z,57.04
2022-12-29T10:57:01.714Z,55.91
2022-12-29T10:58:01.722Z,55.43
2022-12-29T10:59:01.654Z,55.91
2022-12-29T11:00:01.677Z,56.72
2022-12-29T11:01:01.715Z,54.62
2022-12-29T11:02:01.884Z,65.74
2022-12-29T11:03:01.757Z,53.66
2022-12-29T11:04:01.629Z,53.98
2022-12-29T11:05:01.628Z,53.01
2022-12-29T11:06:01.609Z,56.72
2022-12-29T11:07:01.619Z,53.98
2022-12-29T11:08:01.610Z,57.04
2022-12-29T11:09:01.637Z,61.71
2022-12-29T11:10:01.591Z,62.20
2022-12-29T11:11:01.587Z,62.20
2022-12-29T11:12:01.565Z,53.82
2022-12-29T11:13:01.605Z,56.56
2022-12-29T11:14:01.546Z,53.50
2022-12-29T11:15:02.432Z,61.07
2022-12-29T11:16:01.656Z,54.79
2022-12-29T11:17:01.532Z,62.04
2022-12-29T11:18:01.601Z,57.04
2022-12-29T11:19:01.608Z,53.50
2022-12-29T11:20:01.497Z,59.14
2022-12-29T11:21:01.525Z,52.37
2022-12-29T11:22:02.456Z,46.89
2022-12-29T11:23:01.515Z,53.66
2022-12-29T11:24:01.520Z,59.14
2022-12-29T11:25:01.498Z,53.82
2022-12-29T11:26:01.471Z,52.53
2022-12-29T11:27:01.456Z,62.84
2022-12-29T11:28:02.492Z,51.56
2022-12-29T11:29:01.451Z,52.37
2022-12-29T11:30:01.526Z,55.59
2022-12-29T11:31:01.425Z,52.21
2022-12-29T11:32:01.454Z,53.98
2022-12-29T11:33:01.435Z,57.36
2022-12-29T11:34:01.413Z,56.56
2022-12-29T11:35:01.411Z,51.24
2022-12-29T11:36:01.454Z,49.95
2022-12-29T11:37:01.368Z,48.82
2022-12-29T11:38:01.406Z,54.46
2022-12-29T11:39:01.424Z,50.92
2022-12-29T11:40:01.367Z,51.88
2022-12-29T11:41:01.408Z,50.60
2022-12-29T11:42:01.363Z,49.15
2022-12-29T11:43:01.322Z,55.91
2022-12-29T11:44:01.308Z,61.23
2022-12-29T11:45:05.079Z,52.53
2022-12-29T11:46:02.351Z,51.24
2022-12-29T11:47:01.282Z,56.72
2022-12-29T11:48:01.310Z,51.24
2022-12-29T11:49:01.281Z,57.85
2022-12-29T11:50:01.312Z,48.82
2022-12-29T11:51:01.327Z,59.14
2022-12-29T11:52:01.258Z,56.56
2022-12-29T11:53:01.243Z,58.17
2022-12-29T11:54:01.285Z,55.75
2022-12-29T11:55:01.253Z,52.21
2022-12-29T11:56:01.336Z,56.88
2022-12-29T11:57:01.213Z,51.56
2022-12-29T11:58:01.243Z,54.79
2022-12-29T11:59:01.195Z,60.26
2022-12-29T12:00:01.215Z,48.98
2022-12-29T12:01:01.187Z,48.66
2022-12-29T12:02:01.283Z,61.71
2022-12-29T12:03:01.207Z,60.42
2022-12-29T12:04:01.194Z,54.30
2022-12-29T12:05:01.158Z,56.07
2022-12-29T12:06:01.133Z,54.95
2022-12-29T12:07:01.178Z,53.98
2022-12-29T12:08:01.168Z,62.20
2022-12-29T12:09:01.134Z,56.88
2022-12-29T12:10:07.094Z,49.95
2022-12-29T12:11:03.110Z,61.87
2022-12-29T12:12:01.077Z,55.27
2022-12-29T12:13:01.111Z,58.01
2022-12-29T12:14:01.128Z,48.50
2022-12-29T12:15:01.108Z,60.26
2022-12-29T12:16:01.095Z,54.62
2022-12-29T12:17:01.127Z,52.85
2022-12-29T12:18:01.091Z,58.17
2022-12-29T12:19:01.109Z,61.07
2022-12-29T12:20:01.050Z,53.17
2022-12-29T12:21:01.039Z,54.79
2022-12-29T12:22:01.028Z,60.75
2022-12-29T12:23:00.986Z,58.81
2022-12-29T12:24:01.022Z,59.78
2022-12-29T12:25:01.006Z,51.88
2022-12-29T12:26:00.980Z,49.15
2022-12-29T12:27:01.020Z,57.85
2022-12-29T12:28:01.000Z,58.17
2022-12-29T12:29:00.962Z,56.07
2022-12-29T12:30:01.034Z,52.21
2022-12-29T12:31:01.028Z,55.11
2022-12-29T12:32:00.923Z,58.33
2022-12-29T12:33:00.954Z,51.24
2022-12-29T12:34:00.958Z,53.17
2022-12-29T12:35:00.915Z,53.17
2022-12-29T12:36:00.941Z,49.15
2022-12-29T12:37:00.918Z,48.98
2022-12-29T12:38:00.914Z,56.72
2022-12-29T12:39:00.895Z,52.37
2022-12-29T12:40:00.868Z,52.05
2022-12-29T12:41:00.889Z,61.23
2022-12-29T12:42:00.839Z,62.68
2022-12-29T12:43:00.837Z,60.10
2022-12-29T12:44:00.857Z,56.07
2022-12-29T12:45:00.867Z,51.56
2022-12-29T12:46:00.910Z,51.88
2022-12-29T12:47:00.826Z,54.30
2022-12-29T12:48:00.816Z,57.04
2022-12-29T12:49:00.811Z,53.98
2022-12-29T12:50:00.864Z,61.07
2022-12-29T12:51:00.802Z,49.95
2022-12-29T12:52:05.192Z,50.76
2022-12-29T12:53:01.813Z,53.50
2022-12-29T12:54:00.787Z,63.49
2022-12-29T12:55:00.767Z,61.23
2022-12-29T12:56:00.803Z,53.82
2022-12-29T12:57:01.753Z,56.07
2022-12-29T12:58:00.756Z,51.40
2022-12-29T12:59:05.677Z,59.30
2022-12-29T13:00:02.782Z,57.04
2022-12-29T13:01:00.718Z,50.76
2022-12-29T13:02:00.841Z,53.98
2022-12-29T13:03:02.800Z,56.24
2022-12-29T13:04:00.722Z,53.33
2022-12-29T13:05:00.697Z,57.36
2022-12-29T13:06:00.656Z,49.63
2022-12-29T13:07:00.695Z,50.92
2022-12-29T13:08:00.666Z,52.05
2022-12-29T13:09:01.623Z,63.16
2022-12-29T13:10:00.631Z,59.46